Time;durP1;ratioP1;P1;durP2;ratioP2;P2;SDS_P1;SDS_P2;PMS_P1;PMS_P2;Temp;Humidity;BMP_temperature;BMP_pressure;BME280_temperature;BME280_humidity;BME280_pressure;Samples;Min_cycle;Max_cycle;Signal;HPM_P1;HPM_P2
2022/08/23 00:00:00;;;;;;;8.90;8.00;;;;;25.20;100300.00;;;;2087037;28;20228;-58
2022/08/23 00:01:00;;;;;;;9.23;8.33;;;;;25.20;100294.00;;;;2087157;28;20833;-55
2022/08/23 00:02:04;;;;;;;8.50;7.40;;;;;25.20;100283.00;;;;2087097;28;20588;-57
2022/08/23 00:03:04;;;;;;;7.20;6.60;;;;;25.20;100294.00;;;;2078295;28;20221;-55
2022/08/23 00:04:07;;;;;;;9.37;8.47;;;;;25.20;100296.00;;;;2077860;28;20460;-55
2022/08/23 00:05:07;;;;;;;7.80;7.00;;;;;25.20;100290.00;;;;2086281;28;20228;-55
2022/08/23 00:06:09;;;;;;;8.60;7.70;;;;;25.20;100293.00;;;;2086364;28;20964;-55
2022/08/23 00:07:11;;;;;;;9.30;7.23;;;;;25.20;100298.00;;;;2086117;28;20212;-55
2022/08/23 00:08:12;;;;;;;8.43;7.53;;;;;25.20;100290.00;;;;2085654;28;21049;-53
2022/08/23 00:09:12;;;;;;;7.53;6.83;;;;;25.10;100293.00;;;;2086733;28;20435;-60
2022/08/23 00:10:14;;;;;;;7.90;7.10;;;;;25.10;100290.00;;;;2087551;28;20706;-58
2022/08/23 00:11:35;;;;;;;7.47;6.35;;;;;25.10;100293.00;;;;2087603;28;20220;-56
2022/08/23 00:12:36;;;;;;;8.33;7.10;;;;;25.20;100294.00;;;;2093569;28;20216;-56
2022/08/23 00:13:36;;;;;;;7.33;6.60;;;;;25.20;100295.00;;;;2095455;28;20458;-55
2022/08/23 00:14:38;;;;;;;7.07;6.47;;;;;25.20;100297.00;;;;2087364;28;20878;-53
2022/08/23 00:15:38;;;;;;;7.53;6.60;;;;;25.20;100289.00;;;;2095660;28;20212;-56
2022/08/23 00:16:40;;;;;;;7.23;6.53;;;;;25.20;100289.00;;;;2095494;28;20596;-57
2022/08/23 00:17:41;;;;;;;7.73;7.03;;;;;25.20;100290.00;;;;2094679;28;20303;-56
2022/08/23 00:18:41;;;;;;;6.80;6.20;;;;;25.20;100294.00;;;;2093675;28;20996;-56
2022/08/23 00:19:41;;;;;;;7.30;6.57;;;;;25.20;100280.00;;;;2094858;28;20208;-57
2022/08/23 00:20:42;;;;;;;6.70;6.10;;;;;25.20;100289.00;;;;2089512;28;20283;-53
2022/08/23 00:21:43;;;;;;;7.00;6.37;;;;;25.20;100284.00;;;;2086791;28;20208;-56
2022/08/23 00:22:43;;;;;;;6.60;6.00;;;;;25.10;100295.00;;;;2086559;28;20255;-57
2022/08/23 00:23:43;;;;;;;7.13;6.43;;;;;25.20;100293.00;;;;2086637;28;20512;-58
2022/08/23 00:24:44;;;;;;;7.00;6.30;;;;;25.10;100285.00;;;;2087264;28;20251;-57
2022/08/23 00:25:44;;;;;;;6.70;6.10;;;;;25.10;100288.00;;;;2086773;28;20306;-54
2022/08/23 00:26:56;;;;;;;8.13;6.40;;;;;25.10;100286.00;;;;2087224;28;20216;-54
2022/08/23 00:27:57;;;;;;;7.30;6.60;;;;;25.20;100290.00;;;;2086706;28;20260;-55
2022/08/23 00:28:57;;;;;;;7.40;6.67;;;;;25.20;100293.00;;;;2086632;28;20452;-57
2022/08/23 00:29:57;;;;;;;6.30;5.77;;;;;25.10;100283.00;;;;2086275;28;20215;-57
2022/08/23 00:30:58;;;;;;;6.67;6.03;;;;;25.20;100289.00;;;;2087593;28;20205;-57
2022/08/23 00:31:59;;;;;;;6.67;6.07;;;;;25.10;100281.00;;;;2087825;28;20213;-56
2022/08/23 00:32:59;;;;;;;5.97;5.47;;;;;25.20;100281.00;;;;2087555;28;20212;-56
2022/08/23 00:33:59;;;;;;;7.30;6.60;;;;;25.10;100286.00;;;;2087522;28;20455;-55
2022/08/23 00:35:00;;;;;;;6.40;5.90;;;;;25.10;100287.00;;;;2087469;28;20239;-53
2022/08/23 00:36:00;;;;;;;6.57;5.93;;;;;25.10;100271.00;;;;2086449;28;20316;-55
2022/08/23 00:37:01;;;;;;;6.40;5.80;;;;;25.10;100286.00;;;;2087671;28;20715;-54
2022/08/23 00:38:01;;;;;;;6.10;5.50;;;;;25.10;100278.00;;;;2086685;28;20216;-55
2022/08/23 00:39:01;;;;;;;6.33;5.73;;;;;25.10;100285.00;;;;2087676;28;20212;-57
2022/08/23 00:40:04;;;;;;;6.30;5.77;;;;;25.10;100282.00;;;;2087599;28;20209;-57
2022/08/23 00:41:04;;;;;;;6.10;5.50;;;;;25.10;100271.00;;;;2087692;28;20216;-56
2022/08/23 00:47:50;;;;;;;5.95;5.35;;;;;25.10;100266.00;;;;2087042;28;20425;-55
2022/08/23 00:48:50;;;;;;;6.40;5.80;;;;;25.10;100271.00;;;;2084700;28;20205;-55
2022/08/23 00:49:59;;;;;;;6.50;5.23;;;;;25.10;100265.00;;;;2080114;28;20221;-56
2022/08/23 00:51:01;;;;;;;5.65;5.15;;;;;25.10;100266.00;;;;2089158;28;20212;-53
2022/08/23 00:52:11;;;;;;;6.20;5.38;;;;;25.10;100276.00;;;;2082766;28;20221;-54
2022/08/23 00:53:23;;;;;;;6.07;5.50;;;;;25.10;100267.00;;;;2088757;28;20752;-55
2022/08/23 00:54:26;;;;;;;5.78;5.28;;;;;25.00;100250.00;;;;2089051;28;20697;-55
2022/08/23 00:55:27;;;;;;;5.53;4.95;;;;;25.10;100277.00;;;;2087433;28;20221;-57
2022/08/23 00:56:30;;;;;;;5.97;4.95;;;;;25.10;100265.00;;;;2087402;28;20236;-57
2022/08/23 00:57:30;;;;;;;5.40;4.90;;;;;25.10;100271.00;;;;2078950;28;20611;-57
2022/08/23 00:58:31;;;;;;;5.30;4.80;;;;;25.10;100271.00;;;;2087496;28;20462;-57
2022/08/23 00:59:31;;;;;;;5.70;5.20;;;;;25.10;100279.00;;;;2095733;28;20465;-57
2022/08/23 01:00:31;;;;;;;5.60;5.10;;;;;25.10;100271.00;;;;2095304;28;20694;-55
2022/08/23 01:01:32;;;;;;;5.20;4.80;;;;;25.00;100274.00;;;;2086931;28;20247;-54
2022/08/23 01:02:32;;;;;;;5.67;5.13;;;;;25.00;100277.00;;;;2095256;28;20201;-56
2022/08/23 01:03:35;;;;;;;5.37;4.93;;;;;25.10;100277.00;;;;2094312;28;20216;-55
2022/08/23 01:04:43;;;;;;;4.80;4.30;;;;;25.10;100279.00;;;;2078653;28;20302;-55
2022/08/23 01:06:07;;;;;;;5.10;4.65;;;;;24.80;100284.00;;;;2074653;28;21019;-55
2022/08/23 01:07:21;;;;;;;5.27;4.77;;;;;25.10;100286.00;;;;2079343;28;20297;-55
2022/08/23 01:08:22;;;;;;;5.50;5.00;;;;;25.10;100286.00;;;;2093699;28;20454;-57
2022/08/23 01:09:22;;;;;;;5.50;5.00;;;;;25.10;100278.00;;;;2086895;28;20534;-56
2022/08/23 01:10:36;;;;;;;5.97;5.40;;;;;25.00;100283.00;;;;2078452;28;20210;-56
2022/08/23 01:11:40;;;;;;;5.28;4.78;;;;;25.00;100286.00;;;;2088694;28;20224;-55
2022/08/23 01:12:45;;;;;;;5.20;4.70;;;;;25.10;100282.00;;;;2087304;28;20969;-55
2022/08/23 01:14:00;;;;;;;5.13;4.72;;;;;25.10;100286.00;;;;2088041;28;20470;-56
2022/08/23 01:15:08;;;;;;;5.25;4.85;;;;;25.10;100282.00;;;;2081587;28;20217;-56
2022/08/23 01:16:12;;;;;;;4.90;4.50;;;;;25.10;100286.00;;;;2073494;28;20210;-55
2022/08/23 01:17:19;;;;;;;4.60;4.20;;;;;25.10;100286.00;;;;2077535;28;20259;-55
2022/08/23 01:18:20;;;;;;;4.90;4.37;;;;;25.10;100288.00;;;;2077036;28;20224;-55
2022/08/23 01:19:26;;;;;;;5.00;4.60;;;;;25.10;100264.00;;;;2061634;28;20472;-55
2022/08/23 01:20:27;;;;;;;5.30;4.40;;;;;25.10;100282.00;;;;2079213;28;20284;-55
2022/08/23 01:21:45;;;;;;;4.60;4.20;;;;;25.10;100266.00;;;;2071629;28;20453;-55
2022/08/23 01:23:01;;;;;;;4.73;4.30;;;;;25.10;100283.00;;;;2087798;28;20820;-55
2022/08/23 01:24:02;;;;;;;4.43;4.03;;;;;25.00;100240.00;;;;2081176;28;20554;-56
2022/08/23 01:25:04;;;;;;;4.53;4.13;;;;;25.00;100301.00;;;;2079123;28;20975;-55
2022/08/23 01:26:04;;;;;;;4.67;4.27;;;;;25.00;100251.00;;;;2078160;28;20237;-56
2022/08/23 01:27:05;;;;;;;6.27;4.23;;;;;25.00;100286.00;;;;2079599;28;20455;-55
2022/08/23 01:28:05;;;;;;;4.60;4.20;;;;;25.10;100285.00;;;;2078226;28;20221;-55
2022/08/23 01:29:06;;;;;;;4.60;4.20;;;;;25.10;100280.00;;;;2087625;28;20220;-56
2022/08/23 01:30:09;;;;;;;4.70;4.30;;;;;25.00;100281.00;;;;2095841;28;20385;-55
2022/08/23 01:31:09;;;;;;;4.55;4.15;;;;;25.00;100267.00;;;;2092423;28;20239;-56
2022/08/23 01:32:10;;;;;;;4.27;3.87;;;;;25.10;100286.00;;;;2087577;28;20885;-56
2022/08/23 01:33:11;;;;;;;5.00;4.60;;;;;25.00;100287.00;;;;2079142;28;20221;-55
2022/08/23 01:34:11;;;;;;;4.23;3.93;;;;;25.10;100282.00;;;;2078965;28;20214;-55
2022/08/23 01:35:12;;;;;;;4.60;4.20;;;;;25.10;100284.00;;;;2071045;28;20222;-55
2022/08/23 01:36:13;;;;;;;5.10;4.40;;;;;25.10;100288.00;;;;2087183;28;20213;-56
2022/08/23 01:37:13;;;;;;;4.30;3.90;;;;;25.10;100285.00;;;;2086903;28;20615;-56
2022/08/23 01:38:14;;;;;;;4.87;4.37;;;;;25.00;100290.00;;;;2086823;28;20242;-56
2022/08/23 01:39:14;;;;;;;4.00;3.70;;;;;25.10;100286.00;;;;2079128;28;20225;-55
2022/08/23 01:40:14;;;;;;;4.63;4.10;;;;;25.10;100290.00;;;;2095595;28;20306;-56
2022/08/23 01:41:15;;;;;;;4.90;4.50;;;;;25.10;100283.00;;;;2095587;28;20212;-55
2022/08/23 01:42:15;;;;;;;4.47;4.07;;;;;25.10;100287.00;;;;2087512;28;20209;-55
2022/08/23 01:43:18;;;;;;;5.03;4.60;;;;;25.10;100289.00;;;;2094861;28;20217;-55
2022/08/23 01:44:19;;;;;;;3.95;3.65;;;;;25.00;100286.00;;;;2084847;28;20247;-56
2022/08/23 01:45:19;;;;;;;4.80;4.40;;;;;25.10;100278.00;;;;2087248;28;20221;-55
2022/08/23 01:46:20;;;;;;;4.20;3.80;;;;;25.10;100255.00;;;;2096071;28;20212;-55
2022/08/23 01:47:21;;;;;;;5.10;4.23;;;;;25.10;100288.00;;;;2086554;28;20680;-55
2022/08/23 01:48:21;;;;;;;4.47;4.07;;;;;25.10;100283.00;;;;2087358;28;20459;-56
2022/08/23 01:49:22;;;;;;;4.67;4.27;;;;;25.00;100285.00;;;;2095510;28;20815;-55
2022/08/23 01:50:22;;;;;;;4.70;4.30;;;;;25.00;100287.00;;;;2087181;28;20298;-55
2022/08/23 01:51:22;;;;;;;4.53;4.13;;;;;25.00;100301.00;;;;2087060;28;20212;-55
2022/08/23 01:52:23;;;;;;;4.13;3.73;;;;;25.00;100286.00;;;;2095534;28;20221;-55
2022/08/23 01:53:23;;;;;;;4.30;3.97;;;;;25.00;100254.00;;;;2101875;28;20214;-55
2022/08/23 01:54:23;;;;;;;4.43;4.00;;;;;24.90;100282.00;;;;2095168;28;20228;-55
2022/08/23 01:55:24;;;;;;;4.30;3.90;;;;;25.00;100288.00;;;;2095482;28;20223;-55
2022/08/23 01:56:24;;;;;;;3.90;3.60;;;;;25.00;100264.00;;;;2096199;28;20232;-55
2022/08/23 01:57:25;;;;;;;4.10;3.80;;;;;25.00;100288.00;;;;2086412;28;20215;-55
2022/08/23 01:58:25;;;;;;;4.77;4.37;;;;;25.00;100278.00;;;;2087228;28;20205;-55
2022/08/23 01:59:25;;;;;;;3.63;3.33;;;;;25.00;100289.00;;;;2095492;28;20208;-56
2022/08/23 02:00:29;;;;;;;4.30;3.90;;;;;25.00;100283.00;;;;2087167;28;20209;-55
2022/08/23 02:01:29;;;;;;;4.80;4.20;;;;;25.00;100278.00;;;;2095371;28;20212;-55
2022/08/23 02:02:30;;;;;;;4.20;3.80;;;;;25.00;100287.00;;;;2095390;28;20594;-56
2022/08/23 02:03:31;;;;;;;4.30;3.90;;;;;25.00;100286.00;;;;2094158;28;20211;-59
2022/08/23 02:04:31;;;;;;;4.50;4.00;;;;;25.00;100288.00;;;;2094632;28;20466;-55
2022/08/23 02:05:32;;;;;;;4.40;4.10;;;;;25.00;100285.00;;;;2095328;28;20239;-55
2022/08/23 02:06:32;;;;;;;4.13;3.67;;;;;25.00;100291.00;;;;2094867;28;20220;-55
2022/08/23 02:07:33;;;;;;;4.50;4.10;;;;;25.00;100283.00;;;;2094461;28;20215;-55
2022/08/23 02:09:52;;;;;;;4.30;3.78;;;;;25.00;100289.00;;;;2089926;28;20708;-55
2022/08/23 02:10:52;;;;;;;3.80;3.50;;;;;25.00;100288.00;;;;2087834;28;20296;-55
2022/08/23 02:11:53;;;;;;;4.33;3.93;;;;;25.00;100261.00;;;;2078848;28;20220;-55
2022/08/23 02:12:53;;;;;;;4.00;3.70;;;;;25.00;100288.00;;;;2087285;28;20576;-55
2022/08/23 02:13:55;;;;;;;4.80;4.40;;;;;25.00;100292.00;;;;2092620;28;20260;-55
2022/08/23 02:14:56;;;;;;;4.10;3.60;;;;;25.00;100312.00;;;;2094954;28;20216;-55
2022/08/23 02:15:58;;;;;;;4.20;3.90;;;;;25.00;100291.00;;;;2084299;28;20500;-56
2022/08/23 02:16:59;;;;;;;4.10;3.70;;;;;25.00;100289.00;;;;2087113;28;20220;-55
2022/08/23 02:17:59;;;;;;;3.80;3.50;;;;;25.00;100295.00;;;;2086810;28;20471;-55
2022/08/23 02:19:01;;;;;;;3.80;3.50;;;;;25.00;100291.00;;;;2087687;28;20213;-56
2022/08/23 02:20:04;;;;;;;4.43;4.03;;;;;25.00;100286.00;;;;2087884;28;20708;-55
2022/08/23 02:21:04;;;;;;;4.20;3.80;;;;;25.00;100283.00;;;;2078510;28;20226;-55
2022/08/23 02:22:05;;;;;;;3.93;3.60;;;;;25.00;100296.00;;;;2079048;28;20221;-56
2022/08/23 02:23:05;;;;;;;3.70;3.40;;;;;25.00;100292.00;;;;2078542;28;20681;-55
2022/08/23 02:24:08;;;;;;;4.47;4.07;;;;;25.00;100290.00;;;;2078767;28;20221;-55
2022/08/23 02:25:08;;;;;;;4.10;3.70;;;;;25.00;100285.00;;;;2087011;28;20220;-55
2022/08/23 02:26:09;;;;;;;4.00;3.70;;;;;25.00;100288.00;;;;2095123;28;20299;-56
2022/08/23 02:27:09;;;;;;;3.90;3.60;;;;;25.00;100288.00;;;;2087629;28;20243;-56
2022/08/23 02:28:10;;;;;;;4.10;3.80;;;;;25.00;100288.00;;;;2077874;28;20213;-55
2022/08/23 02:29:11;;;;;;;4.27;3.87;;;;;25.00;100289.00;;;;2078631;28;20304;-55
2022/08/23 02:30:12;;;;;;;4.20;3.90;;;;;25.00;100289.00;;;;2087017;28;20317;-55
2022/08/23 02:31:12;;;;;;;5.00;4.33;;;;;25.00;100293.00;;;;2087818;28;20239;-55
2022/08/23 02:32:13;;;;;;;4.37;3.97;;;;;25.00;100285.00;;;;2086869;28;20251;-54
2022/08/23 02:33:14;;;;;;;5.15;3.75;;;;;25.00;100291.00;;;;2083080;28;20217;-56
2022/08/23 02:34:15;;;;;;;3.90;3.60;;;;;25.00;100256.00;;;;2086597;28;20212;-55
2022/08/23 02:35:16;;;;;;;4.50;3.63;;;;;25.00;100280.00;;;;2078582;28;20213;-55
2022/08/23 02:36:16;;;;;;;3.93;3.60;;;;;25.00;100283.00;;;;2086849;28;20255;-56
2022/08/23 02:37:16;;;;;;;5.10;4.40;;;;;25.00;100287.00;;;;2094197;28;20453;-55
2022/08/23 02:38:17;;;;;;;3.90;3.53;;;;;25.00;100289.00;;;;2095549;28;20243;-55
2022/08/23 02:39:17;;;;;;;3.90;3.60;;;;;25.00;100275.00;;;;2095663;28;20208;-55
2022/08/23 02:40:18;;;;;;;4.20;3.80;;;;;25.00;100283.00;;;;2086755;28;20232;-55
2022/08/23 02:41:18;;;;;;;4.13;3.83;;;;;25.00;100299.00;;;;2078718;28;20495;-55
2022/08/23 02:42:19;;;;;;;3.93;3.60;;;;;25.00;100291.00;;;;2095153;28;20218;-55
2022/08/23 02:43:19;;;;;;;4.70;3.80;;;;;25.00;100291.00;;;;2093633;28;20223;-55
2022/08/23 02:44:19;;;;;;;4.10;3.70;;;;;25.00;100296.00;;;;2086836;28;20213;-56
2022/08/23 02:45:20;;;;;;;4.00;3.67;;;;;25.00;100291.00;;;;2088006;28;20213;-54
2022/08/23 02:46:20;;;;;;;4.60;4.20;;;;;25.00;100288.00;;;;2105404;28;20230;-55
2022/08/23 02:47:21;;;;;;;5.20;3.70;;;;;25.00;100297.00;;;;2096568;28;20224;-54
2022/08/23 02:48:21;;;;;;;4.10;3.80;;;;;25.00;100285.00;;;;2096824;28;20208;-56
2022/08/23 02:49:21;;;;;;;4.30;3.73;;;;;25.00;100288.00;;;;2079888;28;20570;-57
2022/08/23 02:50:22;;;;;;;3.90;3.60;;;;;25.00;100292.00;;;;2088386;28;20209;-54
2022/08/23 02:51:22;;;;;;;4.30;3.70;;;;;25.00;100297.00;;;;2097374;28;20219;-55
2022/08/23 02:52:23;;;;;;;4.40;4.00;;;;;25.00;100290.00;;;;2096229;28;20220;-57
2022/08/23 02:53:23;;;;;;;4.00;3.70;;;;;25.00;100295.00;;;;2095871;28;20215;-56
2022/08/23 02:54:23;;;;;;;4.20;3.90;;;;;25.00;100294.00;;;;2095403;28;20969;-56
2022/08/23 02:55:24;;;;;;;3.73;3.43;;;;;25.00;100292.00;;;;2095244;28;20303;-57
2022/08/23 02:56:24;;;;;;;3.70;3.40;;;;;25.00;100290.00;;;;2095609;28;20281;-57
2022/08/23 02:57:25;;;;;;;3.50;3.20;;;;;25.00;100297.00;;;;2094840;28;20212;-55
2022/08/23 02:58:25;;;;;;;3.07;2.87;;;;;25.00;100295.00;;;;2095577;28;20216;-55
2022/08/23 02:59:26;;;;;;;4.17;3.83;;;;;25.00;100290.00;;;;2095008;28;20443;-54
2022/08/23 03:00:26;;;;;;;4.53;3.70;;;;;25.00;100289.00;;;;2078805;28;20221;-55
2022/08/23 03:01:28;;;;;;;4.03;3.60;;;;;25.00;100290.00;;;;2086702;28;20212;-56
2022/08/23 03:02:29;;;;;;;4.05;3.75;;;;;25.00;100297.00;;;;2079028;28;20224;-57
2022/08/23 03:03:29;;;;;;;3.63;3.33;;;;;25.00;100293.00;;;;2086648;28;20247;-56
2022/08/23 03:04:30;;;;;;;3.77;3.27;;;;;25.00;100289.00;;;;2095132;28;20221;-55
2022/08/23 03:05:30;;;;;;;3.63;3.30;;;;;25.00;100291.00;;;;2090710;28;20216;-55
2022/08/23 03:06:31;;;;;;;3.90;3.50;;;;;25.00;100297.00;;;;2094678;28;20215;-55
2022/08/23 03:07:31;;;;;;;3.93;3.53;;;;;25.00;100288.00;;;;2093906;28;20215;-55
2022/08/23 03:08:31;;;;;;;3.80;3.33;;;;;24.90;100294.00;;;;2086707;28;20212;-55
2022/08/23 03:09:32;;;;;;;3.97;3.67;;;;;24.90;100296.00;;;;2086364;28;20223;-57
2022/08/23 03:10:32;;;;;;;4.03;3.63;;;;;25.00;100289.00;;;;2095810;28;20293;-56
2022/08/23 03:11:32;;;;;;;4.00;3.70;;;;;25.00;100286.00;;;;2090976;28;20220;-56
2022/08/23 03:12:33;;;;;;;4.03;3.63;;;;;25.00;100296.00;;;;2087561;28;20227;-57
2022/08/23 03:13:33;;;;;;;4.30;3.80;;;;;24.90;100294.00;;;;2087060;28;20784;-56
2022/08/23 03:14:34;;;;;;;3.97;3.57;;;;;24.90;100294.00;;;;2085185;28;20212;-57
2022/08/23 03:15:34;;;;;;;4.20;3.80;;;;;24.90;100293.00;;;;2087118;28;20223;-57
2022/08/23 03:16:34;;;;;;;4.23;3.83;;;;;24.90;100289.00;;;;2086965;28;20244;-57
2022/08/23 03:17:35;;;;;;;4.37;3.43;;;;;25.00;100291.00;;;;2086469;28;20216;-57
2022/08/23 03:18:35;;;;;;;3.93;3.63;;;;;25.00;100289.00;;;;2087406;28;20266;-57
2022/08/23 03:19:36;;;;;;;3.43;3.20;;;;;25.00;100291.00;;;;2087240;28;20216;-57
2022/08/23 03:20:36;;;;;;;4.57;3.13;;;;;24.90;100292.00;;;;2087892;28;20235;-57
2022/08/23 03:21:37;;;;;;;3.57;3.37;;;;;24.90;100299.00;;;;2087631;28;20213;-56
2022/08/23 03:22:37;;;;;;;3.63;3.33;;;;;25.00;100294.00;;;;2087716;28;20270;-56
2022/08/23 03:23:38;;;;;;;3.60;3.33;;;;;25.00;100286.00;;;;2087482;28;20947;-57
2022/08/23 03:24:38;;;;;;;3.73;3.43;;;;;25.00;100289.00;;;;2092542;28;20680;-56
2022/08/23 03:25:39;;;;;;;3.87;3.40;;;;;24.90;100295.00;;;;2093578;28;20208;-57
2022/08/23 03:26:42;;;;;;;4.00;3.70;;;;;24.90;100288.00;;;;2094067;28;20224;-57
2022/08/23 03:27:43;;;;;;;3.55;3.25;;;;;24.90;100294.00;;;;2086407;28;20216;-60
2022/08/23 03:28:43;;;;;;;3.60;3.30;;;;;24.90;100292.00;;;;2089124;28;20255;-58
2022/08/23 03:29:44;;;;;;;3.70;3.40;;;;;24.90;100291.00;;;;2095669;28;20262;-57
2022/08/23 03:30:44;;;;;;;4.30;3.73;;;;;24.90;100297.00;;;;2094806;28;20258;-57
2022/08/23 03:31:44;;;;;;;3.80;3.50;;;;;24.90;100292.00;;;;2094805;28;20235;-57
2022/08/23 03:32:45;;;;;;;3.87;3.47;;;;;24.90;100294.00;;;;2095668;28;20235;-57
2022/08/23 03:33:46;;;;;;;3.53;3.23;;;;;24.90;100291.00;;;;2095719;28;20214;-57
2022/08/23 03:34:46;;;;;;;5.23;3.37;;;;;24.90;100292.00;;;;2091896;28;20641;-57
2022/08/23 03:35:47;;;;;;;3.93;3.57;;;;;24.90;100289.00;;;;2095555;28;20605;-57
2022/08/23 03:36:47;;;;;;;3.60;3.30;;;;;24.90;100291.00;;;;2095693;28;20219;-57
2022/08/23 03:37:47;;;;;;;3.17;2.97;;;;;24.90;100302.00;;;;2094929;28;20226;-56
2022/08/23 03:38:48;;;;;;;4.10;3.80;;;;;24.90;100292.00;;;;2095840;28;20576;-57
2022/08/23 03:39:48;;;;;;;3.40;3.20;;;;;24.90;100296.00;;;;2088013;28;20570;-57
2022/08/23 03:40:51;;;;;;;4.00;3.70;;;;;24.90;100297.00;;;;2087371;28;20212;-57
2022/08/23 03:41:51;;;;;;;3.30;3.00;;;;;24.90;100299.00;;;;2087467;28;20239;-57
2022/08/23 03:42:52;;;;;;;3.97;3.60;;;;;24.90;100301.00;;;;2087435;28;20531;-57
2022/08/23 03:43:52;;;;;;;3.90;3.50;;;;;24.90;100300.00;;;;2087115;28;20689;-57
2022/08/23 03:44:52;;;;;;;3.80;3.50;;;;;24.90;100307.00;;;;2087220;28;20251;-57
2022/08/23 03:45:52;;;;;;;3.77;3.47;;;;;24.90;100315.00;;;;2086813;28;20209;-57
2022/08/23 03:46:53;;;;;;;3.63;3.33;;;;;24.90;100308.00;;;;2087300;28;20335;-57
2022/08/23 03:47:53;;;;;;;3.77;3.47;;;;;24.90;100309.00;;;;2086515;28;20243;-57
2022/08/23 03:48:58;;;;;;;3.93;3.50;;;;;24.90;100312.00;;;;2086913;28;20757;-57
2022/08/23 03:49:58;;;;;;;3.60;3.30;;;;;24.90;100317.00;;;;2087197;28;20296;-57
2022/08/23 03:50:59;;;;;;;3.90;3.60;;;;;24.90;100313.00;;;;2087284;28;21014;-57
2022/08/23 03:51:59;;;;;;;3.93;3.57;;;;;24.90;100316.00;;;;2086899;28;20264;-56
2022/08/23 03:52:59;;;;;;;3.80;3.50;;;;;25.00;100312.00;;;;2086969;28;20212;-57
2022/08/23 03:54:00;;;;;;;3.97;3.57;;;;;24.90;100317.00;;;;2086787;28;20317;-57
2022/08/23 03:55:00;;;;;;;3.90;3.50;;;;;24.90;100318.00;;;;2087175;28;20281;-57
2022/08/23 03:56:01;;;;;;;3.70;3.40;;;;;24.90;100314.00;;;;2086413;28;20795;-57
2022/08/23 03:57:03;;;;;;;3.97;3.67;;;;;24.90;100318.00;;;;2086713;28;20611;-57
2022/08/23 03:58:04;;;;;;;3.80;3.40;;;;;24.90;100321.00;;;;2086554;28;20204;-55
2022/08/23 03:59:07;;;;;;;3.80;3.50;;;;;24.90;100317.00;;;;2087712;28;20964;-56
2022/08/23 04:00:09;;;;;;;4.15;3.85;;;;;24.90;100319.00;;;;2079670;28;20210;-57
2022/08/23 04:01:09;;;;;;;3.95;3.55;;;;;24.90;100323.00;;;;2079569;28;20214;-57
2022/08/23 04:02:09;;;;;;;3.73;3.43;;;;;24.90;100317.00;;;;2081963;28;20224;-56
2022/08/23 04:03:10;;;;;;;3.20;3.00;;;;;24.90;100322.00;;;;2088225;28;20233;-57
2022/08/23 04:04:10;;;;;;;3.70;3.50;;;;;24.90;100321.00;;;;2096120;28;20212;-55
2022/08/23 04:05:11;;;;;;;4.03;3.60;;;;;24.90;100326.00;;;;2093180;28;20212;-56
2022/08/23 04:06:11;;;;;;;3.80;3.50;;;;;24.90;100330.00;;;;2096517;28;20294;-55
2022/08/23 04:07:11;;;;;;;4.20;3.33;;;;;24.80;100332.00;;;;2096700;28;20208;-56
2022/08/23 04:08:12;;;;;;;3.70;3.40;;;;;24.90;100324.00;;;;2090978;28;20216;-57
2022/08/23 04:09:13;;;;;;;3.63;3.33;;;;;24.90;100332.00;;;;2088254;28;20220;-57
2022/08/23 04:10:14;;;;;;;3.87;3.57;;;;;24.90;100334.00;;;;2088215;28;20455;-57
2022/08/23 04:11:14;;;;;;;4.80;3.53;;;;;24.90;100334.00;;;;2087273;28;20452;-54
2022/08/23 04:12:15;;;;;;;3.80;3.50;;;;;24.90;100326.00;;;;2087879;28;20237;-56
2022/08/23 04:13:15;;;;;;;3.50;3.20;;;;;24.90;100333.00;;;;2096268;28;20214;-57
2022/08/23 04:14:15;;;;;;;3.73;3.43;;;;;24.90;100331.00;;;;2096222;28;20208;-55
2022/08/23 04:15:17;;;;;;;3.70;3.40;;;;;24.90;100333.00;;;;2095242;28;20295;-56
2022/08/23 04:16:20;;;;;;;3.97;3.58;;;;;24.90;100335.00;;;;2094108;28;20584;-55
2022/08/23 04:17:20;;;;;;;3.70;3.40;;;;;24.90;100333.00;;;;2093042;28;20215;-59
2022/08/23 04:18:21;;;;;;;3.80;3.50;;;;;24.90;100335.00;;;;2094366;28;20458;-56
2022/08/23 04:19:22;;;;;;;3.63;3.33;;;;;24.90;100335.00;;;;2091026;28;20290;-55
2022/08/23 04:20:23;;;;;;;3.60;3.23;;;;;24.90;100315.00;;;;2086946;28;20573;-55
2022/08/23 04:21:24;;;;;;;3.40;3.13;;;;;24.90;100335.00;;;;2088687;28;20824;-56
2022/08/23 04:22:24;;;;;;;3.83;3.53;;;;;24.90;100340.00;;;;2093549;28;20228;-55
2022/08/23 04:23:26;;;;;;;3.43;3.23;;;;;24.80;100337.00;;;;2094042;28;20223;-56
2022/08/23 04:24:27;;;;;;;3.87;3.57;;;;;24.90;100337.00;;;;2094625;28;20211;-55
2022/08/23 04:25:27;;;;;;;3.23;2.93;;;;;24.90;100334.00;;;;2095011;28;20834;-57
2022/08/23 04:26:27;;;;;;;5.00;3.63;;;;;24.90;100343.00;;;;2094633;28;20654;-56
2022/08/23 04:27:28;;;;;;;3.33;3.13;;;;;24.90;100342.00;;;;2087355;28;20209;-55
2022/08/23 04:28:28;;;;;;;3.30;3.10;;;;;24.90;100345.00;;;;2091754;28;20212;-56
2022/08/23 04:29:29;;;;;;;3.80;3.50;;;;;24.90;100345.00;;;;2095557;28;20914;-57
2022/08/23 04:30:29;;;;;;;4.07;3.67;;;;;24.90;100342.00;;;;2090143;28;20776;-57
2022/08/23 04:31:32;;;;;;;3.63;3.33;;;;;24.80;100340.00;;;;2078592;28;20627;-55
2022/08/23 04:32:32;;;;;;;3.90;3.60;;;;;24.80;100345.00;;;;2078317;28;20221;-58
2022/08/23 04:33:33;;;;;;;3.43;3.23;;;;;24.90;100335.00;;;;2087291;28;20304;-58
2022/08/23 04:34:34;;;;;;;3.40;3.10;;;;;24.80;100343.00;;;;2086353;28;20223;-57
2022/08/23 04:35:34;;;;;;;3.65;3.35;;;;;24.90;100345.00;;;;2086465;28;20742;-56
2022/08/23 04:36:37;;;;;;;3.83;3.47;;;;;24.80;100319.00;;;;2091704;28;20219;-56
2022/08/23 04:37:38;;;;;;;3.67;3.20;;;;;24.90;100353.00;;;;2093672;28;20257;-57
2022/08/23 04:38:38;;;;;;;4.23;3.57;;;;;24.80;100356.00;;;;2094938;28;20247;-55
2022/08/23 04:42:16;;;;;;;4.27;3.97;;;;;24.80;100360.00;;;;2094143;28;20315;-56
2022/08/23 04:43:17;;;;;;;3.93;3.53;;;;;24.80;100358.00;;;;2096068;28;20518;-56
2022/08/23 04:44:17;;;;;;;3.80;3.50;;;;;24.80;100363.00;;;;2089322;28;20302;-57
2022/08/23 04:45:17;;;;;;;3.77;3.47;;;;;24.80;100358.00;;;;2103485;28;20231;-57
2022/08/23 04:46:18;;;;;;;3.90;3.60;;;;;24.80;100348.00;;;;2095379;28;20238;-57
2022/08/23 04:47:19;;;;;;;3.63;3.33;;;;;24.80;100358.00;;;;2094383;28;20220;-57
2022/08/23 04:48:19;;;;;;;3.80;3.50;;;;;24.80;100357.00;;;;2088226;28;20205;-55
2022/08/23 04:49:22;;;;;;;3.63;3.33;;;;;24.80;100361.00;;;;2095817;28;20486;-56
2022/08/23 04:50:22;;;;;;;3.63;3.33;;;;;24.80;100359.00;;;;2095424;28;20269;-56
2022/08/23 04:51:22;;;;;;;3.60;3.30;;;;;24.70;100359.00;;;;2096152;28;20450;-56
2022/08/23 04:52:23;;;;;;;3.60;3.40;;;;;24.70;100360.00;;;;2096618;28;20212;-57
2022/08/23 04:53:23;;;;;;;4.23;3.80;;;;;24.80;100364.00;;;;2097092;28;20219;-57
2022/08/23 04:54:24;;;;;;;4.07;3.67;;;;;24.80;100354.00;;;;2095569;28;20219;-57
2022/08/23 04:55:25;;;;;;;3.37;3.07;;;;;24.80;100365.00;;;;2095874;28;20454;-56
2022/08/23 04:56:25;;;;;;;3.47;3.27;;;;;24.80;100363.00;;;;2096072;28;20474;-56
2022/08/23 04:57:25;;;;;;;4.20;3.50;;;;;24.70;100365.00;;;;2095292;28;20212;-57
2022/08/23 04:58:26;;;;;;;4.23;3.57;;;;;24.80;100361.00;;;;2096575;28;20219;-57
2022/08/23 04:59:26;;;;;;;3.50;3.20;;;;;24.80;100363.00;;;;2095997;28;20208;-56
2022/08/23 05:00:26;;;;;;;3.60;3.30;;;;;24.80;100363.00;;;;2096032;28;20208;-57
2022/08/23 05:01:27;;;;;;;3.47;3.17;;;;;24.80;100362.00;;;;2096743;28;20208;-57
2022/08/23 05:02:27;;;;;;;3.47;3.17;;;;;24.80;100368.00;;;;2087351;28;20217;-55
2022/08/23 05:03:28;;;;;;;3.90;3.30;;;;;24.80;100369.00;;;;2086290;28;20209;-55
2022/08/23 05:04:28;;;;;;;3.83;3.50;;;;;24.70;100374.00;;;;2096237;28;20244;-63
2022/08/23 05:05:29;;;;;;;3.73;3.43;;;;;24.80;100377.00;;;;2096421;28;20454;-62
2022/08/23 05:06:30;;;;;;;3.60;3.30;;;;;24.80;100372.00;;;;2090000;28;20213;-60
2022/08/23 05:07:30;;;;;;;4.40;3.77;;;;;24.80;100373.00;;;;2087203;28;20239;-56
2022/08/23 05:08:31;;;;;;;4.30;3.90;;;;;24.90;100374.00;;;;2088185;28;20447;-57
2022/08/23 05:09:31;;;;;;;3.67;3.37;;;;;24.80;100376.00;;;;2092523;28;20250;-54
2022/08/23 05:10:31;;;;;;;3.73;3.43;;;;;24.80;100379.00;;;;2095365;28;20220;-56
2022/08/23 05:11:32;;;;;;;3.30;3.10;;;;;24.80;100375.00;;;;2096725;28;20220;-54
2022/08/23 05:12:33;;;;;;;3.97;3.67;;;;;24.80;100379.00;;;;2096676;28;20220;-56